Latest Weather Observations for Merriwa

IDN60801

Issued at 6:32 pm EST Thursday 27 July 2017 (issued every 30 minutes, with the page automatically refreshed every 10 minutes)

About weather observations | Map of weather stations | Latest weather observations for NSW | Other Formats
Station Details ID: 061287 Name: MERRIWA (ROSCOMMON) Lat: -32.19 Lon: 150.17 Height: 375.0 m
Data from the previous 72 hours. | See also: Recent months at Merriwa
Date/Time
EST
Temp
°C
App
Temp
°C
Dew
Point
°C
Rel
Hum
%
Delta-T
°C
Wind Press
QNH
hPa
Press
MSL
hPa
Rain since
9am
mm
Dir  Spd
km/h
Gust
km/h
Spd
kts
Gust
kts
27/06:30pm 7.4 5.6 1.3 65 2.5 CALM 0 0 0 0 1022.2 1022.9 0.0
27/06:00pm 7.7 5.3 0.0 58 3.1 ESE 2 11 1 6 1021.9 1022.6 0.0
27/05:30pm 9.7 7.8 0.6 53 3.8 CALM 0 0 0 0 1022.0 1022.7 0.0
27/05:00pm 11.3 8.1 1.0 49 4.4 SE 7 9 4 5 1021.7 1022.4 0.0
27/04:30pm 13.2 10.1 1.2 44 5.2 SE 7 9 4 5 1021.7 1022.4 0.0
27/04:00pm 15.9 12.3 0.9 36 6.6 SSE 9 13 5 7 1021.8 1022.5 0.0
27/03:30pm 16.5 13.4 0.2 33 7.2 SE 6 9 3 5 1021.9 1022.6 0.0
27/03:00pm 17.0 13.8 0.6 33 7.3 ESE 7 15 4 8 1021.9 1022.6 0.0
27/02:30pm 17.2 13.5 -0.1 31 7.6 E 9 13 5 7 1022.4 1023.1 0.0
27/02:00pm 16.1 13.1 1.8 38 6.4 ESE 7 13 4 7 1022.3 1023.0 0.0
27/01:30pm 16.2 12.4 1.9 38 6.5 SE 11 17 6 9 1022.8 1023.5 0.0
27/01:00pm 15.5 12.1 1.6 39 6.2 NE 9 15 5 8 1023.3 1023.9 0.0
27/12:30pm 14.8 11.4 2.0 42 5.8 ENE 9 19 5 10 1023.5 1024.1 0.0
27/12:00pm 15.1 11.0 2.3 42 5.8 E 13 20 7 11 1023.8 1024.4 0.0
27/11:30am 14.5 10.9 3.0 46 5.3 SE 11 17 6 9 1024.5 1025.2 0.0
27/11:00am 12.8 9.2 3.2 52 4.3 E 11 15 6 8 1024.9 1025.6 0.0
27/10:30am 12.3 9.9 4.5 59 3.6 SE 6 13 3 7 1025.1 1025.8 0.0
27/10:00am 12.0 9.6 4.5 60 3.5 WNW 6 9 3 5 1025.4 1026.1 0.0
27/09:30am 9.9 6.9 4.3 68 2.5 W 9 13 5 7 1025.9 1026.5 0.0
27/09:00am 7.2 6.0 4.5 83 1.2 CALM 0 0 0 0 1025.6 1026.3 0.0
27/08:30am 4.3 2.9 3.3 93 0.4 CALM 0 0 0 0 1025.6 1026.3 0.0
27/08:00am 2.1 0.4 1.8 98 0.1 CALM 0 0 0 0 1025.2 1025.9 0.0
27/07:30am -0.6 -4.1 -1.2 96 0.2 NNE 7 9 4 5 1024.5 1025.2 0.0
27/07:00am -0.5 -2.6 -0.9 97 0.1 CALM 0 0 0 0 1024.2 1024.9 0.0
27/06:30am -0.3 -2.4 -1.1 94 0.3 CALM 0 0 0 0 1024.1 1024.8 0.0
27/06:00am 1.3 -2.0 0.1 92 0.4 W 7 11 4 6 1024.1 1024.8 0.0
27/05:30am 1.3 -2.3 0.3 93 0.4 W 9 11 5 6 1023.8 1024.4 0.0
27/05:00am 1.8 -1.4 0.8 93 0.4 WNW 7 9 4 5 1023.7 1024.3 0.0
27/04:30am 1.1 -2.6 0.1 93 0.4 WNW 9 15 5 8 1023.9 1024.6 0.0
27/04:00am 2.0 -1.7 -0.1 86 0.8 S 9 11 5 6 1023.9 1024.6 0.0
27/03:30am 4.2 -0.7 1.7 84 1.0 WNW 17 19 9 10 1023.8 1024.4 0.0
27/03:00am 4.3 0.2 2.0 85 0.9 W 13 15 7 8 1024.0 1024.7 0.0
27/02:30am 4.6 1.2 2.1 84 1.0 WNW 9 13 5 7 1024.1 1024.8 0.0
27/02:00am 4.5 0.8 2.4 86 0.9 WNW 11 13 6 7 1024.1 1024.8 0.0
27/01:30am 4.4 1.2 2.8 89 0.7 NW 9 11 5 6 1024.2 1024.9 0.0
27/01:00am 2.9 1.1 1.0 87 0.7 CALM 0 0 0 0 1024.0 1024.7 0.0
27/12:30am 5.4 2.6 2.1 79 1.4 W 6 9 3 5 1023.8 1024.4 0.0
27/12:00am 7.2 3.3 3.4 77 1.6 WNW 13 17 7 9 1023.8 1024.4 0.0
 
Date/Time
EST
Temp
°C
App
Temp
°C
Dew
Point
°C
Rel
Hum
%
Delta-T
°C
Wind Press
QNH
hPa
Press
MSL
hPa
Rain since
9am
mm
Dir  Spd
km/h
Gust
km/h
Spd
kts
Gust
kts
26/11:30pm 6.3 2.7 2.8 78 1.5 NW 11 13 6 7 1023.9 1024.6 0.0
26/11:00pm 6.2 2.2 3.0 80 1.4 NW 13 13 7 7 1023.8 1024.4 0.0
26/10:30pm 6.5 2.5 2.9 78 1.5 NW 13 15 7 8 1023.3 1023.9 0.0
26/10:00pm 6.9 2.9 3.0 76 1.7 WNW 13 17 7 9 1023.2 1023.8 0.0
26/09:30pm 6.0 2.3 2.5 78 1.5 NNW 11 15 6 8 1023.0 1023.6 0.0
26/09:00pm 5.2 1.7 1.1 75 1.6 N 9 11 5 6 1022.5 1023.2 0.0
26/08:30pm 8.5 4.4 2.3 65 2.7 WNW 13 17 7 9 1021.9 1022.6 0.0
26/08:00pm 10.2 7.2 2.1 57 3.5 W 7 11 4 6 1021.6 1022.2 0.0
26/07:30pm 12.0 9.2 3.0 54 4.0 W 7 13 4 7 1021.3 1021.9 0.0
26/07:00pm 13.0 9.0 2.8 50 4.6 W 13 20 7 11 1020.7 1021.3 0.0
26/06:30pm 13.9 8.8 3.1 48 4.9 W 19 28 10 15 1020.1 1020.7 0.0
26/06:00pm 14.4 9.0 2.6 45 5.3 W 20 30 11 16 1019.9 1020.6 0.0
26/05:30pm 15.2 8.9 1.7 40 6.1 WSW 24 37 13 20 1019.6 1020.3 0.0
26/05:00pm 16.8 10.6 2.4 38 6.6 W 24 35 13 19 1019.2 1019.8 0.0
26/04:30pm 17.8 11.6 2.2 35 7.2 W 24 35 13 19 1019.0 1019.6 0.0
26/04:00pm 18.4 11.1 2.7 35 7.4 W 30 43 16 23 1018.8 1019.4 0.0
26/03:30pm 19.3 12.3 3.9 36 7.5 W 30 44 16 24 1018.7 1019.3 0.0
26/03:00pm 19.6 13.2 3.3 34 7.8 W 26 37 14 20 1018.5 1019.1 0.0
26/02:36pm 19.8 13.0 3.1 33 8.0 W 28 46 15 25 1018.7 1019.3 0.0
26/02:30pm 20.2 12.7 3.4 33 8.1 W 32 46 17 25 1018.6 1019.2 0.0
26/02:00pm 20.1 12.6 3.3 33 8.1 W 32 48 17 26 1018.6 1019.2 0.0
26/01:55pm 20.2 13.0 3.0 32 8.2 W 30 48 16 26 1018.6 1019.2 0.0
26/01:30pm 20.1 12.8 2.5 31 8.3 WNW 30 46 16 25 1018.5 1019.1 0.0
26/01:00pm 20.4 12.8 2.7 31 8.4 WNW 32 46 17 25 1018.7 1019.3 0.0
26/12:53pm 19.7 12.7 2.1 31 8.3 W 28 46 15 25 1018.8 1019.4 0.0
26/12:30pm 20.2 13.3 2.5 31 8.4 WNW 28 39 15 21 1019.0 1019.6 0.0
26/12:00pm 19.5 12.9 1.9 31 8.2 W 26 41 14 22 1019.4 1020.1 0.0
26/11:30am 20.1 14.6 2.0 30 8.5 W 20 35 11 19 1019.9 1020.6 0.0
26/11:00am 19.4 13.2 1.9 31 8.1 WNW 24 33 13 18 1020.4 1021.0 0.0
26/10:30am 18.2 11.4 0.8 31 7.9 WNW 26 33 14 18 1020.8 1021.4 0.0
26/10:00am 16.8 10.4 0.9 34 7.1 NW 24 35 13 19 1020.8 1021.4 0.0
26/09:30am 16.3 10.3 0.8 35 6.9 NW 22 32 12 17 1020.9 1021.5 0.0
26/09:00am 14.6 9.0 1.2 40 5.9 NW 20 26 11 14 1021.0 1021.6 0.0
26/08:30am 13.6 8.7 1.9 45 5.2 WNW 17 24 9 13 1021.0 1021.6 0.0
26/08:00am 11.6 7.4 1.5 50 4.3 W 13 19 7 10 1020.9 1021.5 0.0
26/07:30am 10.7 6.1 1.5 53 3.9 W 15 20 8 11 1020.6 1021.2 0.0
26/07:00am 8.8 4.3 2.2 63 2.8 WNW 15 20 8 11 1020.4 1021.0 0.0
26/06:30am 8.2 4.2 2.9 69 2.3 WSW 13 15 7 8 1019.8 1020.5 0.0
26/06:00am 6.3 2.6 2.2 75 1.7 SW 11 15 6 8 1019.8 1020.5 0.0
26/05:30am 5.3 3.2 2.0 79 1.4 WSW 2 7 1 4 1019.3 1019.9 0.0
26/05:00am 4.6 2.9 2.0 83 1.1 CALM 0 0 0 0 1019.2 1019.8 0.0
26/04:30am 4.4 2.3 1.8 83 1.1 WSW 2 7 1 4 1019.3 1019.9 0.0
26/04:00am 4.1 2.3 1.3 82 1.1 CALM 0 0 0 0 1019.2 1019.8 0.0
26/03:30am 4.3 1.8 1.5 82 1.1 WSW 4 7 2 4 1019.4 1020.1 0.0
26/03:00am 3.9 2.1 1.3 83 1.0 CALM 0 0 0 0 1019.5 1020.2 0.0
26/02:30am 3.5 1.7 1.2 85 0.9 CALM 0 0 0 0 1019.7 1020.4 0.0
26/02:00am 3.9 2.1 1.4 84 1.0 CALM 0 0 0 0 1020.2 1020.8 0.0
26/01:30am 3.1 0.1 0.7 84 0.9 WSW 6 7 3 4 1020.3 1020.9 0.0
26/01:00am 3.1 1.2 0.7 84 0.9 CALM 0 0 0 0 1020.3 1020.9 0.0
26/12:30am 3.8 2.0 1.2 83 1.0 CALM 0 0 0 0 1020.5 1021.1 0.0
26/12:00am 3.7 0.6 0.4 79 1.3 WSW 6 7 3 4 1020.9 1021.5 0.0
 
Date/Time
EST
Temp
°C
App
Temp
°C
Dew
Point
°C
Rel
Hum
%
Delta-T
°C
Wind Press
QNH
hPa
Press
MSL
hPa
Rain since
9am
mm
Dir  Spd
km/h
Gust
km/h
Spd
kts
Gust
kts
25/11:30pm 4.7 1.7 1.9 82 1.1 WNW 7 9 4 5 1020.9 1021.5 0.0
25/11:00pm 4.7 1.3 1.6 80 1.2 WSW 9 11 5 6 1021.1 1021.7 0.0
25/10:30pm 5.0 2.7 0.4 72 1.8 WNW 2 9 1 5 1021.0 1021.6 0.0
25/10:00pm 7.3 4.3 1.8 68 2.3 WNW 7 9 4 5 1021.0 1021.6 0.0
25/09:30pm 7.2 3.8 1.7 68 2.3 WNW 9 9 5 5 1021.0 1021.6 0.0
25/09:00pm 7.7 3.4 1.3 64 2.6 NNW 13 17 7 9 1021.1 1021.7 0.0
25/08:30pm 9.0 5.2 1.9 61 3.0 NNW 11 15 6 8 1021.1 1021.7 0.0
25/08:00pm 9.3 5.3 3.1 65 2.7 NNW 13 15 7 8 1021.3 1021.9 0.0
25/07:30pm 7.5 3.7 1.8 67 2.4 NNW 11 15 6 8 1021.3 1021.9 0.0
25/07:00pm 7.5 3.7 1.6 66 2.4 NNW 11 15 6 8 1021.5 1022.1 0.0
25/06:30pm 8.4 5.0 1.8 63 2.8 NNW 9 13 5 7 1021.3 1021.9 0.0
25/06:00pm 9.6 6.1 1.5 57 3.4 NNW 9 11 5 6 1021.1 1021.7 0.0
25/05:30pm 11.6 8.2 2.1 52 4.2 NNW 9 11 5 6 1021.0 1021.6 0.0
25/05:00pm 15.0 11.3 2.2 42 5.8 NW 11 13 6 7 1021.1 1021.7 0.0
25/04:30pm 17.6 13.1 2.4 36 7.1 WNW 15 20 8 11 1021.0 1021.6 0.0
25/04:00pm 18.5 13.7 2.4 34 7.5 WNW 17 22 9 12 1021.1 1021.7 0.0
25/03:30pm 18.7 13.8 2.1 33 7.7 NW 17 26 9 14 1021.2 1021.8 0.0
25/03:00pm 19.3 15.3 2.6 33 7.9 WNW 13 19 7 10 1021.4 1022.0 0.0
25/02:30pm 18.3 13.4 1.8 33 7.6 W 17 24 9 13 1021.7 1022.4 0.0
25/02:00pm 18.6 13.2 2.4 34 7.5 WSW 20 35 11 19 1021.8 1022.5 0.0
25/01:30pm 18.2 12.9 1.7 33 7.6 W 19 33 10 18 1022.1 1022.8 0.0
25/01:00pm 17.9 12.4 1.8 34 7.4 WSW 20 28 11 15 1022.4 1023.1 0.0
25/12:30pm 17.4 11.1 1.8 35 7.1 W 24 35 13 19 1022.8 1023.5 0.0
25/12:00pm 16.6 10.9 2.6 39 6.4 W 22 32 12 17 1023.6 1024.2 0.0
25/11:30am 15.8 9.7 2.9 42 6.0 WSW 24 37 13 20 1024.2 1024.9 0.0
25/11:00am 15.9 11.3 3.7 44 5.7 W 17 28 9 15 1024.7 1025.4 0.0
25/10:30am 14.8 9.7 4.2 49 5.0 WNW 20 26 11 14 1025.1 1025.8 0.0
25/10:00am 14.2 9.8 5.0 54 4.4 WNW 17 24 9 13 1025.3 1026.0 0.0
25/09:30am 10.7 7.7 4.2 64 3.0 WNW 9 15 5 8 1025.4 1026.1 0.0
25/09:00am 7.8 4.6 3.3 73 1.9 W 9 13 5 7 1025.3 1026.0 0.0
25/08:30am 6.0 2.4 2.8 80 1.4 W 11 17 6 9 1024.9 1025.6 0.0
25/08:00am 4.5 1.3 3.0 90 0.6 WNW 9 13 5 7 1024.6 1025.3 0.0
25/07:30am 1.7 -1.9 0.7 93 0.4 WNW 9 13 5 7 1024.5 1025.2 0.0
25/07:00am 1.2 -2.4 0.5 95 0.3 W 9 13 5 7 1024.2 1024.9 0.0
25/06:30am 0.7 -3.4 0.1 96 0.2 W 11 13 6 7 1024.0 1024.7 0.0
25/06:00am -0.4 -4.2 -0.8 97 0.1 W 9 11 5 6 1023.6 1024.2 0.0
25/05:30am -1.2 -3.4 -1.9 95 0.2 CALM 0 0 0 0 1023.4 1024.0 0.0
25/05:00am -0.9 -3.1 -1.7 94 0.2 CALM 0 0 0 0 1023.1 1023.7 0.0
25/04:30am 0.1 -2.0 -0.7 94 0.3 CALM 0 0 0 0 1023.0 1023.6 0.0
25/04:00am 1.5 -1.8 0.0 90 0.6 WNW 7 11 4 6 1023.0 1023.6 0.0
25/03:30am 2.1 -2.3 0.6 90 0.6 W 13 17 7 9 1023.2 1023.8 0.0
25/03:00am 0.8 -2.9 -0.3 92 0.4 WSW 9 11 5 6 1023.0 1023.6 0.0
25/02:30am -0.2 -2.4 -1.6 90 0.5 CALM 0 0 0 0 1022.7 1023.4 0.0
25/02:00am 0.9 -2.3 -0.4 91 0.5 WNW 6 7 3 4 1022.8 1023.5 0.0
25/01:30am 1.4 -2.0 -0.4 88 0.7 WSW 7 9 4 5 1023.1 1023.7 0.0
25/01:00am 3.8 0.4 1.8 87 0.8 WNW 9 11 5 6 1023.1 1023.7 0.0
25/12:30am 3.0 -0.1 0.2 82 1.1 NNW 6 7 3 4 1022.8 1023.5 0.0
25/12:00am 4.6 2.4 1.3 79 1.3 NNW 2 6 1 3 1023.1 1023.7 0.0
 
Date/Time
EST
Temp
°C
App
Temp
°C
Dew
Point
°C
Rel
Hum
%
Delta-T
°C
Wind Press
QNH
hPa
Press
MSL
hPa
Rain since
9am
mm
Dir  Spd
km/h
Gust
km/h
Spd
kts
Gust
kts
24/11:30pm 5.9 2.6 2.2 77 1.5 WNW 9 11 5 6 1023.2 1023.8 0.0
24/11:00pm 5.4 2.0 1.7 77 1.5 NW 9 11 5 6 1023.3 1023.9 0.0
24/10:30pm 6.8 3.8 1.9 71 2.0 WNW 7 7 4 4 1023.1 1023.7 0.0
24/10:00pm 7.1 3.7 2.0 70 2.1 WNW 9 13 5 7 1023.2 1023.8 0.0
24/09:30pm 7.6 3.8 1.9 67 2.4 W 11 13 6 7 1023.1 1023.7 0.0
24/09:00pm 7.3 3.2 2.0 69 2.2 WNW 13 15 7 8 1022.6 1023.3 0.0
24/08:30pm 8.0 3.9 2.0 66 2.5 WNW 13 15 7 8 1022.2 1022.9 0.0
24/08:00pm 8.4 4.6 1.8 63 2.8 WNW 11 13 6 7 1022.2 1022.9 0.0
24/07:30pm 9.4 5.2 1.8 59 3.2 WNW 13 15 7 8 1022.2 1022.9 0.0
24/07:00pm 8.8 4.6 1.7 61 3.0 WNW 13 15 7 8 1021.9 1022.6 0.0

Other Formats:

Comma delimited format used in spreadsheet applications
http://www.bom.gov.au/fwo/IDN60801/IDN60801.95754.axf

JavaScript Object Notation format (JSON) in row-major order
http://www.bom.gov.au/fwo/IDN60801/IDN60801.95754.json